Park Hall, Maryland
Current Conditions -  °F | °C
As of 3:52 AM on Thursday 23 Oct 2014 (Local Time) from K2W6 Reporting Station
Overcast Overcast  
Wind Chill: 52°   Ceiling: 3300
Heat Index: 52°   Visibility: 10mi
Dew Point: 41°   Wind: 10mph
Humidity: 67%   Direction: 300°WNW
Pressure: 29.86"   Gusts: 24mph
Location:  38.41°N, 76.61°W
Report Text: K2W6 230752Z AUTO 30009G21KT 260V320 10SM OVC033 11/05 A2986 RMK AO1
Loading
Personal Weather Stations






























Interactive Weather Map
Tropical Storm Tracking
New forecast layout! Learn more

10-Day Weather Forecast

Advertisements
Track Severe Weather on mobile